Troutville, Pennsylvania
Current Conditions -  °F | °C
As of 11:53 AM on Friday 21 Nov 2014 (Local Time) from KDUJ Reporting Station
Overcast Overcast  
Wind Chill: 10°   Ceiling: 2700
Heat Index: 22°   Visibility: 10mi
Dew Point: 11°   Wind: 12mph
Humidity: 63%   Direction: 310°NW
Pressure: 30.34"   Gusts: 21mph
Location:  41.03°N, 78.79°W
Report Text: KDUJ 211653Z AUTO 31010G18KT 10SM OVC027 M06/M12 A3034 RMK AO2 SLP302 T10561117
Loading
Personal Weather Stations






























Interactive Weather Map New forecast layout! Learn more

10-Day Weather Forecast

Advertisements
Track Severe Weather on mobile